createdAt,value
2022-07-29T00:03:41.945Z,1.00
2022-07-29T00:09:43.051Z,1.00
2022-07-29T00:15:51.625Z,1.00
2022-07-29T00:21:45.940Z,1.00
2022-07-29T00:27:41.448Z,1.00
2022-07-29T00:33:34.477Z,1.00
2022-07-29T00:39:31.558Z,1.00
2022-07-29T00:45:27.269Z,1.00
2022-07-29T00:51:27.717Z,1.00
2022-07-29T00:57:24.480Z,1.00
2022-07-29T01:03:19.891Z,1.00
2022-07-29T01:09:17.405Z,1.00
2022-07-29T01:15:37.424Z,1.00
2022-07-29T01:21:53.218Z,1.00
2022-07-29T01:28:15.855Z,1.00
2022-07-29T01:34:14.078Z,1.00
2022-07-29T01:40:25.983Z,1.00
2022-07-29T01:46:25.845Z,1.00
2022-07-29T01:52:30.276Z,1.00
2022-07-29T01:58:25.003Z,1.00
2022-07-29T02:04:29.550Z,1.00
2022-07-29T02:10:29.634Z,1.00
2022-07-29T02:16:23.851Z,1.00
2022-07-29T02:22:18.427Z,1.00
2022-07-29T02:28:13.488Z,1.00
2022-07-29T02:34:10.342Z,1.00
2022-07-29T02:40:04.517Z,1.00
2022-07-29T02:46:00.967Z,1.00
2022-07-29T02:51:58.679Z,1.00
2022-07-29T02:57:56.899Z,1.00
2022-07-29T03:03:56.330Z,1.00
2022-07-29T03:09:50.914Z,1.00
2022-07-29T03:15:46.049Z,1.00
2022-07-29T03:21:43.007Z,1.00
2022-07-29T03:27:36.701Z,1.00
2022-07-29T03:33:33.700Z,1.00
2022-07-29T03:39:33.462Z,1.00
2022-07-29T03:45:27.476Z,2.20
2022-07-29T03:51:33.648Z,8.60
2022-07-29T03:57:33.952Z,9.40
2022-07-29T04:03:27.516Z,10.80
2022-07-29T04:09:22.794Z,8.00
2022-07-29T04:15:19.746Z,10.60
2022-07-29T04:21:18.271Z,17.00
2022-07-29T04:27:13.714Z,15.90
2022-07-29T04:33:10.742Z,15.90
2022-07-29T04:39:04.477Z,18.50
2022-07-29T04:44:57.424Z,19.60
2022-07-29T04:50:58.429Z,21.90
2022-07-29T04:56:51.762Z,21.10
2022-07-29T05:02:44.860Z,24.20
2022-07-29T05:08:39.374Z,24.70
2022-07-29T05:14:35.146Z,27.30
2022-07-29T05:20:33.871Z,29.10
2022-07-29T05:26:28.442Z,29.90
2022-07-29T05:32:21.510Z,31.00
2022-07-29T05:38:15.109Z,34.30
2022-07-29T05:44:12.586Z,34.70
2022-07-29T05:50:07.023Z,34.00
2022-07-29T05:56:00.121Z,36.10
2022-07-29T06:01:54.584Z,37.60
2022-07-29T06:07:51.599Z,39.10
2022-07-29T06:13:44.632Z,43.50
2022-07-29T06:19:42.122Z,43.00
2022-07-29T06:25:36.305Z,44.20
2022-07-29T06:31:32.688Z,50.00
2022-07-29T06:37:31.691Z,56.50
2022-07-29T06:43:35.135Z,52.50
2022-07-29T06:49:28.745Z,61.00
2022-07-29T06:55:26.453Z,63.80
2022-07-29T07:01:19.619Z,64.90
2022-07-29T07:07:18.626Z,61.50
2022-07-29T07:13:13.284Z,64.60
2022-07-29T07:19:14.180Z,65.30
2022-07-29T07:25:08.317Z,65.20
2022-07-29T07:31:02.733Z,63.30
2022-07-29T07:36:55.769Z,63.30
2022-07-29T07:42:48.957Z,64.00
2022-07-29T07:48:43.580Z,69.20
2022-07-29T07:54:36.963Z,71.40
2022-07-29T08:00:30.136Z,65.60
2022-07-29T08:06:25.975Z,72.80
2022-07-29T08:12:19.050Z,70.80
2022-07-29T08:18:12.261Z,88.20
2022-07-29T08:24:25.710Z,86.20
2022-07-29T08:30:18.844Z,80.40
2022-07-29T08:36:13.812Z,85.60
2022-07-29T08:42:08.815Z,87.60
2022-07-29T08:48:02.175Z,81.70
2022-07-29T08:53:56.834Z,82.40
2022-07-29T08:59:54.483Z,84.10
2022-07-29T09:05:48.509Z,83.70
2022-07-29T09:11:42.340Z,60.70
2022-07-29T09:17:43.851Z,47.90
2022-07-29T09:23:36.902Z,42.20
2022-07-29T09:29:33.300Z,64.10
2022-07-29T09:35:31.477Z,63.70
2022-07-29T09:41:27.805Z,46.80
2022-07-29T09:47:22.704Z,43.50
2022-07-29T09:53:32.513Z,29.10
2022-07-29T09:59:27.614Z,23.90
2022-07-29T10:05:23.182Z,10.50
2022-07-29T10:11:19.048Z,9.30
2022-07-29T10:17:15.177Z,1.00
2022-07-29T10:23:09.344Z,1.00
2022-07-29T10:29:04.369Z,1.00
2022-07-29T10:35:24.276Z,1.00
2022-07-29T10:42:03.960Z,1.00
2022-07-29T10:48:07.968Z,1.00
2022-07-29T10:54:06.622Z,1.00
2022-07-29T11:00:32.155Z,1.00
2022-07-29T11:06:35.450Z,1.00
2022-07-29T11:12:49.153Z,1.00
2022-07-29T11:19:15.826Z,1.00
2022-07-29T11:31:42.393Z,1.00
2022-07-29T11:37:42.607Z,1.00
2022-07-29T11:43:50.627Z,1.00
2022-07-29T11:49:48.229Z,1.00
2022-07-29T11:55:50.585Z,1.00
2022-07-29T12:02:06.830Z,1.00
2022-07-29T12:08:12.490Z,1.00
2022-07-29T12:14:05.868Z,1.00
2022-07-29T12:20:03.649Z,1.00
2022-07-29T12:26:05.522Z,1.00
2022-07-29T12:32:03.820Z,1.00
2022-07-29T12:38:08.698Z,1.00
2022-07-29T12:44:06.159Z,1.00
2022-07-29T12:50:12.885Z,1.00
2022-07-29T12:56:41.644Z,1.00
2022-07-29T13:02:31.413Z,1.00
2022-07-29T13:08:24.950Z,1.00
2022-07-29T13:14:34.684Z,1.00
2022-07-29T13:20:30.578Z,1.00
2022-07-29T13:26:23.559Z,1.00
2022-07-29T13:32:17.963Z,1.00
2022-07-29T13:38:11.089Z,1.00
2022-07-29T13:44:04.151Z,1.00
2022-07-29T13:49:58.516Z,1.00
2022-07-29T13:55:52.391Z,1.00
2022-07-29T14:01:45.657Z,1.00
2022-07-29T14:07:43.310Z,1.00
2022-07-29T14:13:36.705Z,1.00
2022-07-29T14:19:29.785Z,1.00
2022-07-29T14:25:26.743Z,1.00
2022-07-29T14:31:19.898Z,1.00
2022-07-29T14:37:16.200Z,1.00
2022-07-29T14:43:11.052Z,1.00
2022-07-29T14:49:04.085Z,1.00
2022-07-29T14:55:02.608Z,1.00
2022-07-29T15:00:59.814Z,1.00
2022-07-29T15:06:53.204Z,1.00
2022-07-29T15:12:49.187Z,1.00
2022-07-29T15:18:45.736Z,1.00
2022-07-29T15:24:41.214Z,1.00
2022-07-29T15:30:34.858Z,1.00
2022-07-29T15:42:55.515Z,1.00
2022-07-29T15:48:51.005Z,1.00
2022-07-29T15:54:48.326Z,1.00
2022-07-29T16:00:41.731Z,1.00
2022-07-29T16:06:37.910Z,1.00
2022-07-29T16:12:32.326Z,1.00
2022-07-29T16:18:29.910Z,1.00
2022-07-29T16:24:25.242Z,1.00
2022-07-29T16:30:20.371Z,1.00
2022-07-29T16:36:13.473Z,1.00
2022-07-29T16:42:21.258Z,1.00
2022-07-29T16:48:25.746Z,1.00
2022-07-29T16:54:19.229Z,1.00
2022-07-29T17:00:13.641Z,1.00
2022-07-29T17:06:08.070Z,1.00
2022-07-29T17:12:11.489Z,1.00
2022-07-29T17:18:12.267Z,1.00
2022-07-29T17:24:15.816Z,1.00
2022-07-29T17:30:09.893Z,1.00
2022-07-29T17:36:17.336Z,1.00
2022-07-29T17:42:15.381Z,1.00
2022-07-29T17:48:12.129Z,1.00
2022-07-29T17:54:05.426Z,1.00
2022-07-29T18:00:24.848Z,1.00
2022-07-29T18:06:29.484Z,1.00
2022-07-29T18:12:34.008Z,1.00
2022-07-29T18:18:31.722Z,1.00
2022-07-29T18:24:27.556Z,1.00
2022-07-29T18:30:21.056Z,1.00
2022-07-29T18:36:15.416Z,1.00
2022-07-29T18:42:08.772Z,1.00
2022-07-29T18:48:02.229Z,1.00
2022-07-29T18:53:57.119Z,1.00
2022-07-29T18:59:50.996Z,1.00
2022-07-29T19:05:44.180Z,1.00
2022-07-29T19:11:39.287Z,1.00
2022-07-29T19:17:32.294Z,1.00
2022-07-29T19:23:27.803Z,1.00
2022-07-29T19:29:23.439Z,1.00
2022-07-29T19:35:34.628Z,2.20
2022-07-29T19:41:27.929Z,8.80
2022-07-29T19:47:25.102Z,15.30
2022-07-29T19:53:21.017Z,19.40
2022-07-29T19:59:16.473Z,21.30
2022-07-29T20:05:14.222Z,27.50
2022-07-29T20:11:09.926Z,36.30
2022-07-29T20:17:04.647Z,45.80
2022-07-29T20:23:09.325Z,54.00
2022-07-29T20:29:05.065Z,69.00
2022-07-29T20:34:58.347Z,77.70
2022-07-29T20:40:54.472Z,88.70
2022-07-29T20:46:48.843Z,86.00
2022-07-29T20:52:44.455Z,86.90
2022-07-29T20:58:40.307Z,91.00
2022-07-29T21:04:37.049Z,92.60
2022-07-29T21:10:33.401Z,94.60
2022-07-29T21:16:33.454Z,94.30
2022-07-29T21:22:31.322Z,93.20
2022-07-29T21:28:35.098Z,92.60
2022-07-29T21:34:29.652Z,90.60
2022-07-29T21:40:22.905Z,86.30
2022-07-29T21:46:24.417Z,83.60
2022-07-29T21:52:21.506Z,80.20
2022-07-29T21:58:15.433Z,79.90
2022-07-29T22:04:08.589Z,78.50
2022-07-29T22:10:05.595Z,76.00
2022-07-29T22:15:58.613Z,73.30
2022-07-29T22:22:07.570Z,68.90
2022-07-29T22:28:02.335Z,68.90
2022-07-29T22:33:57.463Z,68.90
2022-07-29T22:39:50.571Z,60.20
2022-07-29T22:45:47.245Z,60.00
2022-07-29T22:51:40.356Z,60.70
2022-07-29T22:57:33.454Z,57.00
2022-07-29T23:03:30.003Z,64.40
2022-07-29T23:09:23.097Z,60.00
2022-07-29T23:15:16.309Z,62.10
2022-07-29T23:21:20.826Z,63.70
2022-07-29T23:27:13.843Z,62.70
2022-07-29T23:33:15.795Z,64.70
2022-07-29T23:39:13.378Z,68.20
2022-07-29T23:45:07.185Z,65.70
2022-07-29T23:51:01.090Z,64.60
2022-07-29T23:57:00.868Z,63.90
